Time;durP1;ratioP1;P1;durP2;ratioP2;P2;SDS_P1;SDS_P2;PMS_P1;PMS_P2;Temp;Humidity;BMP_temperature;BMP_pressure;BME280_temperature;BME280_humidity;BME280_pressure;Samples;Min_cycle;Max_cycle;Signal;HPM_P1;HPM_P2
2023/04/05 00:01:59;;;;;;;27.10;14.30;;;;;;;-2.26;71.81;101298.40;105298;1257;98002;-74
2023/04/05 00:04:53;;;;;;;26.90;12.60;;;;;;;-2.30;71.98;101295.48;105300;1260;101294;-74
2023/04/05 00:07:39;;;;;;;28.90;13.70;;;;;;;-2.35;72.12;101295.58;105297;1257;101588;-74
2023/04/05 00:10:25;;;;;;;23.40;12.50;;;;;;;-2.39;72.19;101296.32;105417;1258;98444;-74
2023/04/05 00:13:11;;;;;;;33.20;12.90;;;;;;;-2.44;72.06;101291.23;105332;1257;98095;-75
2023/04/05 00:15:57;;;;;;;26.40;13.40;;;;;;;-2.49;72.06;101289.59;105336;1257;98550;-75
2023/04/05 00:18:50;;;;;;;25.40;12.80;;;;;;;-2.52;72.45;101288.02;105324;1257;102724;-74
2023/04/05 00:21:38;;;;;;;24.30;12.40;;;;;;;-2.54;72.59;101286.21;106059;1258;100774;-75
2023/04/05 00:24:24;;;;;;;23.90;11.80;;;;;;;-2.55;72.76;101283.98;105380;1253;98005;-74
2023/04/05 00:27:09;;;;;;;27.60;12.80;;;;;;;-2.56;72.96;101281.06;105453;1257;97931;-75
2023/04/05 00:29:55;;;;;;;26.50;12.70;;;;;;;-2.59;73.07;101275.14;105310;1254;98654;-74
2023/04/05 00:32:40;;;;;;;25.90;13.20;;;;;;;-2.62;73.42;101270.55;105206;1254;102616;-75
2023/04/05 00:35:27;;;;;;;24.50;11.90;;;;;;;-2.62;73.89;101272.48;105411;1257;99225;-74
2023/04/05 00:38:12;;;;;;;24.20;11.20;;;;;;;-2.63;74.15;101272.56;105302;1259;97961;-74
2023/04/05 00:40:57;;;;;;;23.60;12.20;;;;;;;-2.65;74.25;101267.41;105284;1257;97951;-74
2023/04/05 00:43:43;;;;;;;23.40;12.20;;;;;;;-2.66;74.28;101263.66;105374;1257;98580;-74
2023/04/05 00:46:33;;;;;;;19.20;10.30;;;;;;;-2.70;74.33;101262.61;105436;1257;102614;-74
2023/04/05 00:49:19;;;;;;;23.20;9.80;;;;;;;-2.72;74.77;101263.65;105356;1257;99136;-74
2023/04/05 00:52:04;;;;;;;20.40;10.00;;;;;;;-2.75;74.80;101260.63;105241;1255;98947;-75
2023/04/05 00:54:51;;;;;;;19.90;9.70;;;;;;;-2.77;74.98;101262.14;105322;1257;97960;-75
2023/04/05 00:57:38;;;;;;;24.70;10.20;;;;;;;-2.81;74.79;101262.90;105256;1259;99193;-75
2023/04/05 01:00:23;;;;;;;19.70;10.10;;;;;;;-2.85;74.75;101258.94;105741;1254;102646;-74
2023/04/05 01:03:09;;;;;;;20.80;10.40;;;;;;;-2.87;74.96;101256.95;105270;1259;100304;-74
2023/04/05 01:06:13;;;;;;;28.70;12.00;;;;;;;-2.88;74.96;101256.15;105236;1260;98552;-74
2023/04/05 01:09:32;;;;;;;25.50;11.00;;;;;;;-2.90;75.00;101247.39;105224;1257;98398;-74
2023/04/05 01:12:21;;;;;;;26.90;12.40;;;;;;;-2.89;75.44;101243.31;105391;1253;98465;-75
2023/04/05 01:15:07;;;;;;;26.00;13.20;;;;;;;-2.87;75.87;101240.02;105237;1254;101345;-75
2023/04/05 01:17:56;;;;;;;29.70;14.90;;;;;;;-2.88;75.94;101234.64;105303;1258;99131;-74
2023/04/05 01:20:57;;;;;;;28.90;12.70;;;;;;;-2.88;75.85;101235.20;105603;1254;98919;-75
2023/04/05 01:24:11;;;;;;;28.60;13.40;;;;;;;-2.89;75.89;101232.06;105453;1261;98014;-75
2023/04/05 01:27:09;;;;;;;27.80;13.40;;;;;;;-2.89;75.94;101232.13;105408;1257;97967;-74
2023/04/05 01:30:16;;;;;;;33.60;15.20;;;;;;;-2.93;75.70;101228.98;105319;1259;101340;-75
2023/04/05 01:33:33;;;;;;;25.50;11.80;;;;;;;-2.99;75.88;101228.11;106744;1257;99819;-75
2023/04/05 01:36:36;;;;;;;21.80;11.00;;;;;;;-3.03;75.91;101229.07;105329;1261;97903;-74
2023/04/05 01:39:23;;;;;;;24.20;11.40;;;;;;;-3.09;76.01;101227.10;105204;1254;98914;-75
2023/04/05 01:42:09;;;;;;;22.40;10.60;;;;;;;-3.11;76.17;101226.70;105324;1253;98395;-74
2023/04/05 01:44:56;;;;;;;25.90;12.30;;;;;;;-3.13;76.02;101227.15;105350;1259;101526;-75
2023/04/05 01:47:41;;;;;;;20.10;9.90;;;;;;;-3.18;75.66;101228.48;105256;1260;100319;-75
2023/04/05 01:50:28;;;;;;;27.20;11.40;;;;;;;-3.20;75.55;101227.55;105258;1255;98478;-75
2023/04/05 01:53:13;;;;;;;28.20;12.40;;;;;;;-3.19;75.65;101228.91;105368;1255;99234;-75
2023/04/05 01:56:00;;;;;;;28.30;13.70;;;;;;;-3.18;75.91;101225.67;105251;1258;98705;-75
2023/04/05 01:58:46;;;;;;;30.30;14.00;;;;;;;-3.17;75.89;101232.08;105439;1256;102569;-75
2023/04/05 02:01:31;;;;;;;30.50;13.60;;;;;;;-3.16;75.78;101233.59;105316;1258;100293;-75
2023/04/05 02:04:16;;;;;;;29.10;13.30;;;;;;;-3.16;75.54;101236.40;105348;1258;99488;-74
2023/04/05 02:07:02;;;;;;;29.70;13.60;;;;;;;-3.16;75.30;101238.33;105241;1260;99738;-74
2023/04/05 02:09:47;;;;;;;33.50;14.80;;;;;;;-3.17;75.12;101237.15;105317;1261;99582;-75
2023/04/05 02:12:33;;;;;;;27.80;14.20;;;;;;;-3.18;75.12;101237.19;105221;1259;102735;-74
2023/04/05 02:15:19;;;;;;;33.60;14.60;;;;;;;-3.18;75.10;101240.36;105275;1253;100380;-74
2023/04/05 02:18:04;;;;;;;34.10;15.60;;;;;;;-3.17;75.16;101238.90;105308;1254;97971;-74
2023/04/05 02:20:50;;;;;;;40.50;16.70;;;;;;;-3.16;75.03;101238.15;105286;1260;98066;-74
2023/04/05 02:23:36;;;;;;;30.30;16.20;;;;;;;-3.15;74.99;101241.08;105301;1258;97996;-74
2023/04/05 02:26:22;;;;;;;37.90;17.90;;;;;;;-3.15;74.91;101240.70;105349;1255;102528;-73
2023/04/05 02:29:07;;;;;;;32.70;15.90;;;;;;;-3.14;74.96;101241.21;105123;1261;100321;-74
2023/04/05 02:31:53;;;;;;;36.10;16.40;;;;;;;-3.16;74.99;101240.92;105262;1257;99300;-75
2023/04/05 02:34:40;;;;;;;39.80;16.90;;;;;;;-3.17;75.30;101237.69;105230;1259;99294;-75
2023/04/05 02:37:26;;;;;;;36.30;16.40;;;;;;;-3.20;75.38;101234.36;105329;1257;99206;-74
2023/04/05 02:40:13;;;;;;;30.20;15.50;;;;;;;-3.22;75.62;101234.46;105270;1259;102564;-74
2023/04/05 02:42:59;;;;;;;36.30;16.50;;;;;;;-3.23;75.76;101235.39;105261;1257;100472;-74
2023/04/05 02:45:45;;;;;;;34.60;16.60;;;;;;;-3.26;75.72;101234.34;105261;1261;99295;-75
2023/04/05 02:48:30;;;;;;;28.60;14.80;;;;;;;-3.30;75.60;101237.18;105241;1260;98065;-75
2023/04/05 02:51:17;;;;;;;31.40;14.90;;;;;;;-3.32;75.50;101235.90;105299;1259;98566;-75
2023/04/05 02:54:02;;;;;;;34.10;17.60;;;;;;;-3.32;75.51;101236.63;105272;1259;103636;-76
2023/04/05 02:56:49;;;;;;;38.00;17.80;;;;;;;-3.30;75.84;101236.14;105343;1259;101615;-74
2023/04/05 02:59:37;;;;;;;38.00;18.40;;;;;;;-3.28;76.17;101235.87;105394;1259;97934;-75
2023/04/05 03:02:23;;;;;;;35.90;16.90;;;;;;;-3.30;76.27;101234.20;105301;1254;97984;-74
2023/04/05 03:05:10;;;;;;;33.20;16.50;;;;;;;-3.32;76.24;101234.48;105350;1259;97932;-75
2023/04/05 03:07:58;;;;;;;32.50;15.30;;;;;;;-3.33;76.45;101230.02;105327;1260;103045;-74
2023/04/05 03:10:46;;;;;;;26.80;14.00;;;;;;;-3.31;76.80;101232.34;106088;1253;99070;-75
2023/04/05 03:13:34;;;;;;;31.40;14.70;;;;;;;-3.31;76.82;101232.55;106404;1255;98792;-75
2023/04/05 03:16:21;;;;;;;31.60;14.10;;;;;;;-3.31;76.95;101233.23;105142;1259;98497;-75
2023/04/05 03:19:07;;;;;;;33.30;15.80;;;;;;;-3.31;76.96;101237.06;105526;1255;98442;-75
2023/04/05 03:21:54;;;;;;;30.00;15.00;;;;;;;-3.32;77.21;101235.00;105244;1255;101386;-74
2023/04/05 03:24:47;;;;;;;33.20;15.20;;;;;;;-3.34;77.53;101237.40;105223;1255;100327;-75
2023/04/05 03:27:35;;;;;;;30.70;16.30;;;;;;;-3.33;77.85;101235.61;105388;1255;97884;-74
2023/04/05 03:30:27;;;;;;;28.40;13.10;;;;;;;-3.32;77.97;101239.55;105269;1257;98562;-75
2023/04/05 03:33:17;;;;;;;30.70;14.40;;;;;;;-3.29;78.15;101243.08;105212;1260;98184;-73
2023/04/05 03:36:05;;;;;;;33.00;14.60;;;;;;;-3.27;78.27;101241.55;105272;1261;102072;-74
2023/04/05 03:38:54;;;;;;;32.10;14.40;;;;;;;-3.25;78.53;101244.23;105259;1260;100114;-75
2023/04/05 03:41:41;;;;;;;31.50;14.10;;;;;;;-3.23;78.68;101243.74;105356;1258;98943;-76
2023/04/05 03:44:26;;;;;;;29.80;13.90;;;;;;;-3.20;78.90;101248.45;105240;1258;97950;-74
2023/04/05 03:47:15;;;;;;;31.10;14.60;;;;;;;-3.18;79.09;101249.26;105408;1258;98405;-75
2023/04/05 03:50:03;;;;;;;31.40;14.00;;;;;;;-3.16;79.20;101249.85;105335;1255;102584;-75
2023/04/05 03:52:50;;;;;;;29.50;15.20;;;;;;;-3.13;79.54;101249.69;105284;1257;99073;-75
2023/04/05 03:55:36;;;;;;;32.40;16.10;;;;;;;-3.09;79.78;101254.21;105216;1259;97957;-75
2023/04/05 03:58:25;;;;;;;30.10;14.30;;;;;;;-3.06;79.79;101255.08;105222;1259;97884;-76
2023/04/05 04:01:11;;;;;;;33.00;16.00;;;;;;;-3.02;79.92;101251.89;105259;1255;98032;-74
2023/04/05 04:03:59;;;;;;;34.50;16.00;;;;;;;-2.99;80.15;101252.57;105356;1253;102645;-75
2023/04/05 04:06:45;;;;;;;43.40;17.70;;;;;;;-2.95;80.35;101249.77;105212;1255;100284;-74
2023/04/05 04:09:32;;;;;;;44.30;20.50;;;;;;;-2.91;80.53;101250.92;105378;1254;98354;-74
2023/04/05 04:12:24;;;;;;;45.90;23.40;;;;;;;-2.88;80.72;101250.20;105261;1254;98034;-73
2023/04/05 04:15:16;;;;;;;43.80;20.10;;;;;;;-2.85;80.89;101253.04;105404;1258;97785;-74
2023/04/05 04:18:32;;;;;;;36.40;17.50;;;;;;;-2.86;80.69;101252.02;105322;1262;101289;-75
2023/04/05 04:21:38;;;;;;;38.20;18.90;;;;;;;-2.85;80.82;101250.02;105289;1258;100083;-75
2023/04/05 04:24:45;;;;;;;41.50;18.30;;;;;;;-2.81;81.13;101253.84;105288;1258;108259;-74
2023/04/05 04:27:53;;;;;;;39.50;17.60;;;;;;;-2.79;81.33;101254.61;105166;1258;98094;-75
2023/04/05 04:31:03;;;;;;;43.30;19.80;;;;;;;-2.78;81.39;101256.79;105270;1256;97929;-75
2023/04/05 04:34:13;;;;;;;63.60;28.30;;;;;;;-2.75;81.61;101256.61;105051;1255;101343;-76
2023/04/05 04:37:29;;;;;;;72.90;33.40;;;;;;;-2.69;81.80;101259.45;105302;1259;99188;-75
2023/04/05 04:40:38;;;;;;;67.70;33.10;;;;;;;-2.65;82.00;101262.53;105289;1260;98947;-75
2023/04/05 04:43:53;;;;;;;42.50;21.30;;;;;;;-2.62;82.12;101260.09;105242;1254;97921;-75
2023/04/05 04:46:57;;;;;;;40.70;20.60;;;;;;;-2.60;82.29;101257.15;105284;1255;98515;-76
2023/04/05 04:50:08;;;;;;;36.40;19.20;;;;;;;-2.55;82.64;101251.83;105350;1258;101946;-76
2023/04/05 04:52:53;;;;;;;35.70;20.00;;;;;;;-2.53;82.69;101254.83;105593;1258;99735;-76
2023/04/05 04:55:42;;;;;;;37.50;17.00;;;;;;;-2.51;83.02;101258.38;105306;1258;99132;-76
2023/04/05 04:58:28;;;;;;;33.70;16.30;;;;;;;-2.49;83.15;101260.73;105272;1256;97860;-76
2023/04/05 05:01:23;;;;;;;36.50;17.10;;;;;;;-2.49;83.51;101256.02;105274;1259;97885;-76
2023/04/05 05:04:09;;;;;;;31.00;16.80;;;;;;;-2.47;83.76;101259.00;105237;1255;101394;-74
2023/04/05 05:06:56;;;;;;;40.60;17.70;;;;;;;-2.42;84.02;101259.05;105274;1256;99152;-75
2023/04/05 05:09:41;;;;;;;37.60;19.20;;;;;;;-2.36;84.42;101263.11;105305;1259;98047;-75
2023/04/05 05:12:26;;;;;;;42.60;20.30;;;;;;;-2.31;84.58;101268.26;105323;1254;98088;-75
2023/04/05 05:15:12;;;;;;;38.10;19.70;;;;;;;-2.26;84.83;101267.06;105285;1260;98394;-74
2023/04/05 05:17:58;;;;;;;47.90;23.30;;;;;;;-2.22;85.07;101265.61;105251;1260;101349;-74
2023/04/05 05:20:43;;;;;;;47.20;22.70;;;;;;;-2.16;85.13;101264.40;105355;1253;100280;-74
2023/04/05 05:23:29;;;;;;;38.90;19.50;;;;;;;-2.10;85.12;101263.01;105264;1258;99570;-74
2023/04/05 05:26:15;;;;;;;39.60;20.90;;;;;;;-2.06;85.01;101266.04;105296;1255;97958;-75
2023/04/05 05:29:01;;;;;;;40.30;18.90;;;;;;;-2.02;84.93;101264.09;105205;1259;97884;-74
2023/04/05 05:31:49;;;;;;;35.30;19.10;;;;;;;-1.97;85.08;101262.92;105236;1256;101322;-74
2023/04/05 05:34:35;;;;;;;35.60;18.10;;;;;;;-1.92;85.19;101268.55;105401;1255;99262;-75
2023/04/05 05:37:29;;;;;;;36.30;18.60;;;;;;;-1.87;85.26;101271.59;105255;1258;98467;-76
2023/04/05 05:40:15;;;;;;;37.30;18.80;;;;;;;-1.83;85.46;101273.61;105236;1258;97959;-75
2023/04/05 05:43:00;;;;;;;37.70;19.00;;;;;;;-1.78;85.55;101273.09;105246;1259;97997;-74
2023/04/05 05:45:46;;;;;;;38.30;18.20;;;;;;;-1.73;85.74;101274.94;105239;1258;101979;-75
2023/04/05 05:48:32;;;;;;;41.20;19.40;;;;;;;-1.69;85.81;101278.36;105277;1258;99235;-74
2023/04/05 05:51:18;;;;;;;32.00;16.40;;;;;;;-1.65;85.92;101278.96;105283;1271;97981;-74
2023/04/05 05:54:03;;;;;;;36.20;18.00;;;;;;;-1.59;86.04;101279.68;105222;1259;99282;-74
2023/04/05 05:56:50;;;;;;;41.60;20.00;;;;;;;-1.54;85.97;101280.92;105207;1257;97846;-74
2023/04/05 05:59:35;;;;;;;32.80;16.30;;;;;;;-1.50;85.87;101279.11;105236;1258;102821;-74
2023/04/05 06:02:21;;;;;;;37.50;17.10;;;;;;;-1.47;85.83;101279.44;105298;1256;100553;-74
2023/04/05 06:05:07;;;;;;;33.00;16.90;;;;;;;-1.43;85.85;101283.09;105315;1258;98053;-74
2023/04/05 06:07:53;;;;;;;28.90;14.70;;;;;;;-1.40;86.14;101284.48;105258;1257;99133;-74
2023/04/05 06:10:39;;;;;;;31.50;15.50;;;;;;;-1.37;86.19;101284.45;105346;1254;98567;-75
2023/04/05 06:13:25;;;;;;;36.20;18.30;;;;;;;-1.32;86.39;101284.33;105292;1260;102268;-74
2023/04/05 06:16:10;;;;;;;39.60;17.20;;;;;;;-1.26;86.61;101284.63;105273;1258;99128;-75
2023/04/05 06:18:57;;;;;;;33.30;17.10;;;;;;;-1.20;86.56;101284.92;105146;1258;97985;-74
2023/04/05 06:21:42;;;;;;;36.20;17.80;;;;;;;-1.14;86.49;101286.28;105347;1258;97985;-75
2023/04/05 06:24:30;;;;;;;30.20;16.20;;;;;;;-1.07;86.59;101287.64;105239;1259;98592;-74
2023/04/05 06:27:16;;;;;;;31.60;14.70;;;;;;;-1.02;86.50;101294.11;105323;1256;102231;-74
2023/04/05 06:30:02;;;;;;;31.20;14.70;;;;;;;-0.97;86.18;101288.91;105366;1258;99988;-76
2023/04/05 06:32:53;;;;;;;25.60;14.40;;;;;;;-0.93;86.20;101291.40;105273;1260;99037;-74
2023/04/05 06:35:39;;;;;;;30.50;15.80;;;;;;;-0.86;86.38;101288.56;105242;1256;97740;-75
2023/04/05 06:38:24;;;;;;;34.20;14.80;;;;;;;-0.82;86.28;101290.01;105357;1255;98023;-74
2023/04/05 06:41:10;;;;;;;29.20;16.10;;;;;;;-0.77;86.25;101289.71;105268;1259;102596;-74
2023/04/05 06:43:55;;;;;;;35.80;17.60;;;;;;;-0.70;86.44;101293.30;105339;1258;99246;-74
2023/04/05 06:46:41;;;;;;;30.30;15.40;;;;;;;-0.63;86.52;101293.94;105196;1261;98970;-75
2023/04/05 06:49:27;;;;;;;30.50;14.70;;;;;;;-0.59;85.89;101296.27;105317;1256;97973;-74
2023/04/05 06:52:12;;;;;;;24.90;12.00;;;;;;;-0.55;85.68;101297.03;105392;1260;99657;-75
2023/04/05 06:54:58;;;;;;;24.80;13.70;;;;;;;-0.52;85.62;101296.67;105421;1255;102708;-75
2023/04/05 06:57:43;;;;;;;26.60;13.40;;;;;;;-0.46;85.61;101295.98;105335;1258;99129;-74
2023/04/05 07:00:29;;;;;;;26.80;13.80;;;;;;;-0.42;85.54;101296.20;105257;1253;99030;-74
2023/04/05 07:03:16;;;;;;;25.80;13.80;;;;;;;-0.37;85.52;101294.64;105281;1256;98680;-74
2023/04/05 07:06:01;;;;;;;26.00;13.30;;;;;;;-0.30;85.52;101296.83;105701;1258;97862;-75
2023/04/05 07:08:47;;;;;;;27.20;13.50;;;;;;;-0.24;85.56;101299.19;105303;1261;101358;-75
2023/04/05 07:11:33;;;;;;;25.80;12.80;;;;;;;-0.18;85.74;101298.63;105265;1265;100778;-74
2023/04/05 07:14:18;;;;;;;26.60;12.90;;;;;;;-0.11;85.63;101297.95;105390;1258;98013;-74
2023/04/05 07:17:05;;;;;;;25.10;12.10;;;;;;;-0.01;85.56;101297.86;105261;1258;97955;-74
2023/04/05 07:19:51;;;;;;;23.70;11.90;;;;;;;0.06;85.41;101298.59;105224;1274;98478;-74
2023/04/05 07:22:37;;;;;;;24.90;11.40;;;;;;;0.14;85.15;101296.14;105261;1258;102544;-74
2023/04/05 07:25:22;;;;;;;30.10;11.90;;;;;;;0.19;85.10;101295.06;105234;1258;100323;-74
2023/04/05 07:28:08;;;;;;;20.90;10.30;;;;;;;0.23;84.81;101295.32;105385;1258;98956;-75
2023/04/05 07:30:53;;;;;;;19.50;9.20;;;;;;;0.30;84.62;101294.84;105200;1261;97972;-74
2023/04/05 07:33:40;;;;;;;21.30;10.00;;;;;;;0.35;84.17;101293.27;105384;1259;98407;-73
2023/04/05 07:36:26;;;;;;;18.20;9.20;;;;;;;0.41;83.93;101295.33;105296;1258;102672;-74
2023/04/05 07:39:11;;;;;;;18.10;9.40;;;;;;;0.46;83.20;101299.35;105264;1261;99211;-74
2023/04/05 07:41:56;;;;;;;16.40;9.20;;;;;;;0.52;83.30;101302.27;105623;1255;98434;-79
2023/04/05 07:44:42;;;;;;;21.90;10.90;;;;;;;0.58;82.97;101303.77;105410;1260;97956;-74
2023/04/05 07:47:27;;;;;;;19.00;9.50;;;;;;;0.65;82.87;101302.59;105366;1260;99269;-74
2023/04/05 07:50:13;;;;;;;17.60;10.70;;;;;;;0.72;82.05;101304.03;106311;1256;102525;-82
2023/04/05 07:52:59;;;;;;;17.60;10.70;;;;;;;0.80;81.69;101305.27;105844;1260;99098;-76
2023/04/05 07:55:45;;;;;;;16.30;8.50;;;;;;;0.88;81.01;101308.66;105375;1258;98102;-76
2023/04/05 07:58:31;;;;;;;16.10;7.90;;;;;;;0.93;79.70;101309.94;105326;1256;98041;-75
2023/04/05 08:01:16;;;;;;;17.80;9.40;;;;;;;0.96;79.29;101309.86;105400;1259;98492;-75
2023/04/05 08:04:02;;;;;;;17.60;10.80;;;;;;;1.03;79.88;101308.30;105299;1253;102241;-75
2023/04/05 08:06:48;;;;;;;18.50;9.90;;;;;;;1.12;79.87;101308.73;105412;1259;100065;-75
2023/04/05 08:09:34;;;;;;;38.10;20.20;;;;;;;1.22;80.86;101308.85;105168;1261;99289;-74
2023/04/05 08:12:20;;;;;;;32.80;17.90;;;;;;;1.32;80.29;101307.11;105244;1259;98044;-77
2023/04/05 08:15:05;;;;;;;18.80;8.30;;;;;;;1.39;79.48;101306.21;105357;1255;98470;-75
2023/04/05 08:17:51;;;;;;;10.80;6.10;;;;;;;1.44;77.82;101305.90;105279;1259;102355;-76
2023/04/05 08:20:38;;;;;;;15.40;7.40;;;;;;;1.49;77.78;101309.49;105440;1254;99178;-77
2023/04/05 08:23:23;;;;;;;14.50;8.70;;;;;;;1.59;78.43;101311.06;105404;1258;98530;-75
2023/04/05 08:26:08;;;;;;;19.50;9.50;;;;;;;1.70;78.65;101307.30;105403;1259;97897;-76
2023/04/05 08:28:54;;;;;;;19.60;9.50;;;;;;;1.79;78.68;101303.78;105291;1256;98077;-75
2023/04/05 08:31:39;;;;;;;21.10;8.50;;;;;;;1.88;78.46;101302.23;105321;1258;101343;-75
2023/04/05 08:34:25;;;;;;;16.10;9.20;;;;;;;1.97;77.92;101301.38;105427;1259;100763;-77
2023/04/05 08:37:10;;;;;;;15.20;8.80;;;;;;;2.07;77.61;101302.69;105266;1260;99062;-76
2023/04/05 08:39:55;;;;;;;11.90;6.50;;;;;;;2.16;77.42;101301.83;105276;1259;98045;-77
2023/04/05 08:42:50;;;;;;;16.30;6.90;;;;;;;2.24;75.81;101301.59;105431;1259;98382;-77
2023/04/05 08:45:45;;;;;;;9.50;5.60;;;;;;;2.30;74.81;101305.66;105347;1256;101320;-78
2023/04/05 08:48:34;;;;;;;9.70;4.80;;;;;;;2.38;74.83;101299.98;105279;1255;99097;-77
2023/04/05 08:51:21;;;;;;;11.20;5.40;;;;;;;2.48;74.16;101298.53;105200;1259;106477;-77
2023/04/05 08:54:06;;;;;;;9.40;4.10;;;;;;;2.51;72.10;101293.34;105337;1258;97984;-78
2023/04/05 08:56:53;;;;;;;5.80;3.70;;;;;;;2.50;70.27;101292.39;105571;1258;97956;-80
2023/04/05 08:59:40;;;;;;;10.10;4.80;;;;;;;2.56;70.77;101289.27;107926;1258;102077;-77
2023/04/05 09:02:26;;;;;;;8.70;5.00;;;;;;;2.75;71.99;101289.31;105500;1259;100129;-77
2023/04/05 09:05:13;;;;;;;8.80;4.20;;;;;;;2.92;71.53;101288.17;105594;1256;98877;-78
2023/04/05 09:08:00;;;;;;;7.10;3.80;;;;;;;3.00;70.68;101288.54;106748;1260;97990;-79
2023/04/05 09:10:48;;;;;;;6.60;3.20;;;;;;;3.09;70.36;101286.25;105710;1256;97827;-79
2023/04/05 09:13:34;;;;;;;8.70;4.80;;;;;;;3.19;70.05;101284.01;105414;1258;102610;-75
2023/04/05 09:16:20;;;;;;;7.90;3.50;;;;;;;3.28;69.29;101286.46;105490;1256;99073;-77
2023/04/05 09:19:05;;;;;;;7.90;4.20;;;;;;;3.35;69.01;101290.47;105573;1260;98968;-77
2023/04/05 09:22:06;;;;;;;7.00;4.10;;;;;;;3.39;68.37;101289.25;105605;1258;98507;-80
2023/04/05 09:24:55;;;;;;;9.60;3.90;;;;;;;3.42;67.94;101292.94;105908;1262;98486;-80
2023/04/05 09:27:57;;;;;;;6.10;3.50;;;;;;;3.42;66.39;101293.42;105346;1254;102248;-79
2023/04/05 09:30:46;;;;;;;7.10;3.50;;;;;;;3.39;65.71;101291.27;105462;1258;99208;-75
2023/04/05 09:33:33;;;;;;;7.70;3.90;;;;;;;3.42;66.01;101287.59;105724;1260;97881;-80
2023/04/05 09:36:18;;;;;;;12.10;7.00;;;;;;;3.48;65.73;101287.85;105477;1256;97978;-74
2023/04/05 09:39:06;;;;;;;7.20;3.90;;;;;;;3.51;64.97;101288.50;105524;1260;97929;-77
2023/04/05 09:42:04;;;;;;;8.40;5.40;;;;;;;3.52;64.44;101287.89;106250;1256;102574;-76
2023/04/05 09:45:01;;;;;;;7.80;5.40;;;;;;;3.52;63.80;101290.89;105169;1255;138637;-79
2023/04/05 09:47:55;;;;;;;7.10;3.30;;;;;;;3.52;63.39;101295.05;105452;1262;98481;-74
2023/04/05 09:50:40;;;;;;;5.40;3.10;;;;;;;3.52;62.89;101293.16;105358;1258;97956;-76
2023/04/05 09:53:28;;;;;;;5.40;3.30;;;;;;;3.54;63.06;101295.12;105545;1260;98405;-76
2023/04/05 09:56:13;;;;;;;6.90;2.90;;;;;;;3.56;62.36;101294.80;105774;1256;102641;-75
2023/04/05 09:59:01;;;;;;;6.20;2.90;;;;;;;3.57;62.04;101295.88;105681;1259;100831;-76
2023/04/05 10:01:50;;;;;;;5.00;2.60;;;;;;;3.58;61.70;101296.52;105639;1256;97949;-76
2023/04/05 10:04:43;;;;;;;6.10;2.50;;;;;;;3.58;61.04;101294.79;105563;1259;98591;-76
2023/04/05 10:07:29;;;;;;;3.90;2.30;;;;;;;3.49;59.81;101293.73;107165;1259;99238;-77
2023/04/05 10:10:15;;;;;;;4.20;2.30;;;;;;;3.47;60.56;101290.55;107065;1254;102143;-80
2023/04/05 10:13:04;;;;;;;4.70;2.30;;;;;;;3.46;59.89;101290.64;105383;1258;101419;-78
2023/04/05 10:15:54;;;;;;;4.30;2.80;;;;;;;3.41;59.13;101294.07;105376;1258;98711;-77
2023/04/05 10:18:48;;;;;;;4.90;2.10;;;;;;;3.36;59.04;101293.04;105471;1258;97961;-75
2023/04/05 10:21:40;;;;;;;3.70;2.60;;;;;;;3.35;59.54;101288.71;105267;1254;98253;-73
2023/04/05 10:24:26;;;;;;;5.30;2.40;;;;;;;3.35;58.85;101288.40;105422;1259;102002;-77
2023/04/05 10:27:26;;;;;;;6.00;2.60;;;;;;;3.33;58.50;101286.60;105569;1271;99096;-77
2023/04/05 10:30:12;;;;;;;5.50;2.70;;;;;;;3.34;58.78;101284.36;105632;1255;97944;-78
2023/04/05 10:33:17;;;;;;;6.10;3.30;;;;;;;3.42;58.70;101283.59;105580;1259;99096;-76
2023/04/05 10:36:18;;;;;;;4.30;3.20;;;;;;;3.52;58.44;101282.00;105569;1259;98393;-76
2023/04/05 10:39:11;;;;;;;4.70;2.50;;;;;;;3.65;58.53;101276.13;105431;1258;101338;-76
2023/04/05 10:42:00;;;;;;;5.20;2.60;;;;;;;3.77;58.04;101282.40;105552;1263;99121;-77
2023/04/05 10:44:51;;;;;;;3.60;2.50;;;;;;;3.77;57.38;101279.44;105612;1258;98899;-77
2023/04/05 10:47:47;;;;;;;4.40;2.30;;;;;;;3.79;57.59;101275.36;105494;1259;98085;-79
2023/04/05 10:50:35;;;;;;;5.60;2.60;;;;;;;3.85;57.36;101270.97;105566;1259;97974;-77
2023/04/05 10:53:22;;;;;;;8.30;2.60;;;;;;;3.98;57.44;101270.03;105557;1259;101395;-75
2023/04/05 10:56:08;;;;;;;4.20;2.60;;;;;;;4.08;57.69;101265.87;105388;1259;99074;-77
2023/04/05 10:58:54;;;;;;;5.20;2.80;;;;;;;4.16;57.87;101261.45;105337;1259;97868;-78
2023/04/05 11:01:41;;;;;;;6.20;2.80;;;;;;;4.22;58.14;101261.83;105455;1267;99260;-75
2023/04/05 11:04:26;;;;;;;3.90;2.30;;;;;;;4.33;58.56;101259.81;105497;1254;98486;-74
2023/04/05 11:07:16;;;;;;;5.60;2.80;;;;;;;4.47;58.42;101257.88;105416;1254;102738;-75
2023/04/05 11:10:04;;;;;;;4.40;3.00;;;;;;;4.59;58.07;101256.62;105196;1260;100428;-77
2023/04/05 11:12:56;;;;;;;8.00;3.90;;;;;;;4.75;58.00;101254.91;105891;1260;98578;-78
2023/04/05 11:15:41;;;;;;;4.40;2.50;;;;;;;4.95;58.76;101256.83;105502;1258;97900;-77
2023/04/05 11:18:27;;;;;;;8.60;2.70;;;;;;;5.15;58.64;101256.80;107031;1259;98282;-78
2023/04/05 11:21:21;;;;;;;8.20;3.10;;;;;;;5.31;58.10;101255.39;106598;1260;101358;-81
2023/04/05 11:24:10;;;;;;;5.20;2.90;;;;;;;5.40;57.26;101257.38;106100;1260;99101;-75
2023/04/05 11:26:56;;;;;;;5.90;2.40;;;;;;;5.51;57.49;101252.14;105568;1257;98743;-78
2023/04/05 11:29:47;;;;;;;7.60;3.60;;;;;;;5.62;57.22;101247.40;106518;1259;99295;-80
2023/04/05 11:32:43;;;;;;;;;;;;;;;5.69;55.63;101250.79;106452;1260;97949;-80
2023/04/05 11:35:33;;;;;;;4.70;2.90;;;;;;;5.61;55.00;101248.89;105600;1263;102321;-76
2023/04/05 11:38:22;;;;;;;11.30;3.30;;;;;;;5.66;55.94;101251.81;105554;1260;99068;-77
2023/04/05 11:41:16;;;;;;;4.50;2.90;;;;;;;5.73;55.60;101251.50;105389;1258;99387;-77
2023/04/05 11:44:04;;;;;;;6.40;3.60;;;;;;;5.76;55.50;101249.63;105391;1261;99284;-75
2023/04/05 11:46:51;;;;;;;8.40;4.50;;;;;;;5.76;55.21;101247.87;106481;1258;98454;-76
2023/04/05 11:49:38;;;;;;;5.50;2.50;;;;;;;5.83;55.46;101247.27;105369;1268;101995;-75
2023/04/05 11:52:23;;;;;;;2.70;2.30;;;;;;;5.89;55.25;101245.78;105461;1261;100325;-78
2023/04/05 11:55:10;;;;;;;5.10;2.40;;;;;;;5.89;55.05;101242.45;105511;1257;99180;-75
2023/04/05 11:57:55;;;;;;;5.30;2.40;;;;;;;5.87;54.10;101241.59;105499;1260;97970;-76
2023/04/05 12:00:43;;;;;;;4.00;2.30;;;;;;;5.82;53.39;101242.90;105575;1259;98481;-76
2023/04/05 12:03:30;;;;;;;5.70;2.10;;;;;;;5.69;52.49;101248.73;105330;1261;102604;-76
2023/04/05 12:06:15;;;;;;;3.50;1.90;;;;;;;5.54;52.11;101246.70;105397;1254;99076;-76
2023/04/05 12:09:05;;;;;;;2.40;1.60;;;;;;;5.46;51.97;101246.48;105394;1259;98990;-76
2023/04/05 12:11:53;;;;;;;4.60;2.00;;;;;;;5.35;51.53;101250.59;105250;1260;98161;-76
2023/04/05 12:14:39;;;;;;;4.70;1.60;;;;;;;5.26;51.44;101249.92;105481;1259;98498;-78
2023/04/05 12:17:44;;;;;;;3.90;1.90;;;;;;;5.14;50.89;101244.64;105295;1263;101299;-76
2023/04/05 12:20:30;;;;;;;3.60;2.00;;;;;;;5.05;51.93;101241.17;105305;1268;100737;-75
2023/04/05 12:23:16;;;;;;;4.00;2.20;;;;;;;5.14;53.52;101238.08;105531;1259;97930;-75
2023/04/05 12:26:03;;;;;;;2.30;2.00;;;;;;;5.39;54.12;101235.46;105776;1257;97963;-77
2023/04/05 12:28:56;;;;;;;6.10;2.40;;;;;;;5.67;53.72;101235.09;105329;1260;98394;-75
2023/04/05 12:31:43;;;;;;;3.90;2.20;;;;;;;5.78;52.57;101235.81;105373;1260;101331;-76
2023/04/05 12:34:29;;;;;;;7.60;2.70;;;;;;;5.81;51.90;101236.45;105362;1258;99171;-76
2023/04/05 12:37:15;;;;;;;8.80;3.10;;;;;;;5.77;51.82;101237.81;105247;1260;99001;-76
2023/04/05 12:40:02;;;;;;;5.70;3.50;;;;;;;5.73;52.46;101234.17;105324;1260;98727;-76
2023/04/05 12:42:48;;;;;;;9.10;4.50;;;;;;;5.73;53.35;101233.63;105513;1260;99623;-77
2023/04/05 12:45:41;;;;;;;7.40;4.10;;;;;;;5.75;53.71;101231.98;105329;1260;102602;-76
2023/04/05 12:48:28;;;;;;;8.50;4.10;;;;;;;5.78;53.09;101229.21;105325;1255;99655;-76